Port Dickinson, New York
Current Conditions -  °F | °C
As of 12:53 AM on Sunday 21 Dec 2014 (Local Time) from KBGM Reporting Station
Overcast Overcast  
Wind Chill: 24°   Ceiling: 1300
Heat Index: 24°   Visibility: 10mi
Dew Point: 19°   Wind: 0mph
Humidity: 81%   Direction: NA
Pressure: 30.2"   Gusts: NA
Location:  42.1934°N, 75.8849°W
Report Text: KBGM 210553Z AUTO 00000KT 10SM OVC013 M04/M07 A3020 RMK AO2 SLP250 T10441072 11039 21044 50000
Loading
Personal Weather Stations






























Interactive Weather Map New forecast layout! Learn more

10-Day Weather Forecast

Advertisements
Track Severe Weather on mobile